Time;durP1;ratioP1;P1;durP2;ratioP2;P2;SDS_P1;SDS_P2;PMS_P1;PMS_P2;Temp;Humidity;BMP_temperature;BMP_pressure;BME280_temperature;BME280_humidity;BME280_pressure;Samples;Min_cycle;Max_cycle;Signal;HPM_P1;HPM_P2
2023/12/14 00:00:53;;;;;;;16.40;13.13;;;;;;;;;;4990721;28;20212;-64
2023/12/14 00:03:21;;;;;;;15.65;13.93;;;;;;;;;;4998016;28;20205;-64
2023/12/14 00:05:51;;;;;;;14.88;12.30;;;;;;;;;;4998752;28;20209;-65
2023/12/14 00:08:19;;;;;;;17.15;13.50;;;;;;;;;;5008194;28;20186;-65
2023/12/14 00:10:47;;;;;;;18.85;13.02;;;;;;;;;;4995988;28;20554;-64
2023/12/14 00:13:16;;;;;;;20.08;14.80;;;;;;;;;;4995050;28;20242;-64
2023/12/14 00:15:44;;;;;;;22.92;14.98;;;;;;;;;;4991549;28;20207;-64
2023/12/14 00:18:12;;;;;;;17.80;14.68;;;;;;;;;;4991912;28;20215;-65
2023/12/14 00:20:41;;;;;;;16.55;13.65;;;;;;;;;;5006256;28;20216;-66
2023/12/14 00:23:10;;;;;;;23.27;14.50;;;;;;;;;;5009443;28;20287;-64
2023/12/14 00:25:39;;;;;;;18.63;14.85;;;;;;;;;;5009398;28;20255;-64
2023/12/14 00:28:07;;;;;;;18.52;13.43;;;;;;;;;;5001739;28;20207;-64
2023/12/14 00:30:35;;;;;;;20.42;13.52;;;;;;;;;;4992189;28;20203;-65
2023/12/14 00:33:03;;;;;;;16.55;14.10;;;;;;;;;;5007754;28;20206;-65
2023/12/14 00:35:32;;;;;;;20.20;13.23;;;;;;;;;;5011564;28;20554;-65
2023/12/14 00:38:00;;;;;;;22.35;14.40;;;;;;;;;;5005866;28;20337;-65
2023/12/14 00:40:30;;;;;;;16.88;12.50;;;;;;;;;;5008768;28;20622;-64
2023/12/14 00:42:58;;;;;;;15.95;14.10;;;;;;;;;;5008012;28;20210;-64
2023/12/14 00:45:26;;;;;;;16.92;14.77;;;;;;;;;;4982190;28;20280;-64
2023/12/14 00:47:54;;;;;;;20.65;13.32;;;;;;;;;;4971275;28;20268;-64
2023/12/14 00:50:22;;;;;;;23.20;14.55;;;;;;;;;;4997192;28;20244;-64
2023/12/14 00:52:51;;;;;;;17.50;14.25;;;;;;;;;;4975997;28;20202;-65
2023/12/14 00:55:19;;;;;;;19.27;14.63;;;;;;;;;;5004224;28;20233;-64
2023/12/14 00:57:49;;;;;;;19.20;13.93;;;;;;;;;;4994169;28;20214;-64
2023/12/14 01:00:18;;;;;;;21.00;15.98;;;;;;;;;;5009103;28;20213;-64
2023/12/14 01:02:47;;;;;;;26.15;16.52;;;;;;;;;;5005362;28;20271;-65
2023/12/14 01:05:15;;;;;;;19.30;14.52;;;;;;;;;;5008998;28;20210;-64
2023/12/14 01:07:43;;;;;;;16.85;14.38;;;;;;;;;;4995232;28;20202;-65
2023/12/14 01:10:11;;;;;;;20.98;15.82;;;;;;;;;;4996620;28;20199;-65
2023/12/14 01:12:40;;;;;;;25.17;17.92;;;;;;;;;;4991891;28;20209;-65
2023/12/14 01:15:10;;;;;;;17.63;15.32;;;;;;;;;;5005612;28;20206;-64
2023/12/14 01:17:38;;;;;;;18.08;14.73;;;;;;;;;;5004981;28;20217;-64
2023/12/14 01:20:07;;;;;;;21.15;15.75;;;;;;;;;;4998838;28;20209;-66
2023/12/14 01:22:36;;;;;;;26.25;14.27;;;;;;;;;;5010603;28;20206;-65
2023/12/14 01:25:04;;;;;;;21.02;16.05;;;;;;;;;;4991639;28;20203;-64
2023/12/14 01:27:32;;;;;;;21.23;16.38;;;;;;;;;;4992126;28;20723;-65
2023/12/14 01:30:00;;;;;;;21.73;16.73;;;;;;;;;;5009688;28;20657;-64
2023/12/14 01:32:33;;;;;;;19.00;16.08;;;;;;;;;;4999273;28;20202;-65
2023/12/14 01:35:01;;;;;;;19.45;16.88;;;;;;;;;;4992886;28;20198;-65
2023/12/14 01:37:30;;;;;;;27.23;18.15;;;;;;;;;;4990597;28;20233;-65
2023/12/14 01:39:58;;;;;;;23.33;17.70;;;;;;;;;;4997448;28;20255;-64
2023/12/14 01:42:26;;;;;;;26.02;18.17;;;;;;;;;;5008489;28;20194;-64
2023/12/14 01:44:54;;;;;;;21.83;17.25;;;;;;;;;;4991100;28;20239;-65
2023/12/14 01:47:22;;;;;;;22.90;17.35;;;;;;;;;;4990283;28;20401;-65
2023/12/14 01:49:52;;;;;;;23.90;18.95;;;;;;;;;;4989415;28;20697;-65
2023/12/14 01:52:20;;;;;;;22.40;18.25;;;;;;;;;;4995935;28;20217;-64
2023/12/14 01:54:48;;;;;;;24.67;18.80;;;;;;;;;;4991436;28;20672;-65
2023/12/14 01:57:17;;;;;;;28.60;19.98;;;;;;;;;;5001057;28;20214;-65
2023/12/14 01:59:45;;;;;;;24.40;19.33;;;;;;;;;;5001628;28;20217;-65
2023/12/14 02:02:13;;;;;;;28.75;19.45;;;;;;;;;;4989729;28;20267;-65
2023/12/14 02:04:42;;;;;;;23.92;19.00;;;;;;;;;;4997385;28;20710;-65
2023/12/14 02:07:11;;;;;;;27.63;19.10;;;;;;;;;;5007846;28;20202;-65
2023/12/14 02:09:40;;;;;;;27.67;20.23;;;;;;;;;;5006292;28;20333;-65
2023/12/14 02:12:08;;;;;;;24.60;19.67;;;;;;;;;;5006470;28;20242;-64
2023/12/14 02:14:35;;;;;;;26.85;20.88;;;;;;;;;;5003947;28;20203;-65
2023/12/14 02:17:04;;;;;;;29.50;19.63;;;;;;;;;;5006344;28;20235;-65
2023/12/14 02:19:32;;;;;;;26.42;21.02;;;;;;;;;;5008816;28;20204;-65
2023/12/14 02:22:03;;;;;;;27.73;21.20;;;;;;;;;;4995010;28;20676;-64
2023/12/14 02:24:33;;;;;;;26.15;20.88;;;;;;;;;;4992002;28;20204;-65
2023/12/14 02:27:02;;;;;;;28.30;21.88;;;;;;;;;;5006448;28;20536;-64
2023/12/14 02:29:29;;;;;;;41.25;21.42;;;;;;;;;;4990768;28;20213;-65
2023/12/14 02:31:58;;;;;;;26.30;20.60;;;;;;;;;;4998150;28;20262;-64
2023/12/14 02:34:26;;;;;;;31.83;23.80;;;;;;;;;;4989640;28;20209;-64
2023/12/14 02:36:54;;;;;;;28.58;21.70;;;;;;;;;;4998284;28;20606;-65
2023/12/14 02:39:22;;;;;;;37.83;21.00;;;;;;;;;;4991514;28;20594;-65
2023/12/14 02:41:52;;;;;;;28.40;20.75;;;;;;;;;;4989163;28;20266;-66
2023/12/14 02:44:20;;;;;;;33.10;22.85;;;;;;;;;;4988745;28;20233;-64
2023/12/14 02:46:48;;;;;;;31.63;21.88;;;;;;;;;;4998154;28;20207;-65
2023/12/14 02:49:17;;;;;;;33.67;22.52;;;;;;;;;;5007986;28;20609;-65
2023/12/14 02:51:47;;;;;;;27.73;21.58;;;;;;;;;;5008787;28;20205;-65
2023/12/14 02:54:15;;;;;;;34.70;22.85;;;;;;;;;;4990207;28;20211;-65
2023/12/14 02:56:43;;;;;;;41.15;23.30;;;;;;;;;;5001993;28;20206;-65
2023/12/14 02:59:13;;;;;;;31.63;21.95;;;;;;;;;;4992927;28;20575;-65
2023/12/14 03:01:41;;;;;;;30.23;22.35;;;;;;;;;;4988178;28;20297;-65
2023/12/14 03:04:09;;;;;;;33.72;21.48;;;;;;;;;;4998152;28;20202;-65
2023/12/14 03:06:38;;;;;;;27.48;22.95;;;;;;;;;;5004247;28;20198;-65
2023/12/14 03:09:06;;;;;;;28.98;22.67;;;;;;;;;;5000732;28;20724;-65
2023/12/14 03:11:34;;;;;;;27.70;21.33;;;;;;;;;;5009720;28;20205;-64
2023/12/14 03:14:02;;;;;;;28.80;21.17;;;;;;;;;;4998080;28;20578;-65
2023/12/14 03:16:32;;;;;;;33.35;22.15;;;;;;;;;;4992695;28;20388;-66
2023/12/14 03:19:00;;;;;;;35.10;21.67;;;;;;;;;;5003321;28;20701;-65
2023/12/14 03:21:28;;;;;;;59.72;42.70;;;;;;;;;;4994180;28;20205;-65
2023/12/14 03:23:57;;;;;;;72.32;56.03;;;;;;;;;;5009045;28;20236;-66
2023/12/14 03:26:25;;;;;;;37.63;27.85;;;;;;;;;;5008511;28;20649;-65
2023/12/14 03:28:53;;;;;;;30.33;22.42;;;;;;;;;;5000498;28;20241;-65
2023/12/14 03:31:22;;;;;;;31.73;21.25;;;;;;;;;;5004268;28;20195;-65
2023/12/14 03:33:51;;;;;;;28.90;20.20;;;;;;;;;;4991057;28;20202;-65
2023/12/14 03:36:19;;;;;;;36.30;25.02;;;;;;;;;;4992286;28;20206;-65
2023/12/14 03:38:48;;;;;;;27.33;23.05;;;;;;;;;;4996294;28;20551;-64
2023/12/14 03:41:16;;;;;;;38.90;29.65;;;;;;;;;;5005475;28;20228;-65
2023/12/14 03:43:44;;;;;;;29.15;19.13;;;;;;;;;;4998042;28;20234;-65
2023/12/14 03:46:12;;;;;;;27.45;18.42;;;;;;;;;;4989835;28;20806;-66
2023/12/14 03:48:40;;;;;;;31.63;20.35;;;;;;;;;;4988330;28;20203;-66
2023/12/14 03:51:10;;;;;;;27.65;19.75;;;;;;;;;;4992418;28;20213;-65
2023/12/14 03:53:39;;;;;;;30.48;20.17;;;;;;;;;;4992136;28;20215;-65
2023/12/14 03:56:10;;;;;;;26.50;19.25;;;;;;;;;;4993703;28;20247;-65
2023/12/14 03:58:37;;;;;;;26.67;19.55;;;;;;;;;;5011494;28;20232;-65
2023/12/14 04:01:05;;;;;;;40.25;27.02;;;;;;;;;;5011240;28;20202;-65
2023/12/14 04:03:33;;;;;;;34.28;23.50;;;;;;;;;;5004071;28;20203;-65
2023/12/14 04:06:02;;;;;;;23.52;19.90;;;;;;;;;;4990296;28;20206;-65
2023/12/14 04:08:31;;;;;;;27.27;21.33;;;;;;;;;;4991513;28;20606;-65
2023/12/14 04:11:00;;;;;;;22.23;16.70;;;;;;;;;;4991874;28;20191;-66
2023/12/14 04:13:28;;;;;;;24.25;19.30;;;;;;;;;;4994460;28;20198;-65
2023/12/14 04:15:57;;;;;;;25.85;16.80;;;;;;;;;;5011200;28;20216;-65
2023/12/14 04:18:25;;;;;;;20.40;17.10;;;;;;;;;;5010856;28;20224;-65
2023/12/14 04:20:54;;;;;;;21.73;17.45;;;;;;;;;;5011551;28;20282;-65
2023/12/14 04:23:22;;;;;;;21.75;15.85;;;;;;;;;;5010068;28;20217;-65
2023/12/14 04:25:51;;;;;;;22.00;15.48;;;;;;;;;;5004666;28;20201;-65
2023/12/14 04:28:20;;;;;;;21.90;16.30;;;;;;;;;;4990544;28;20215;-65
2023/12/14 04:30:48;;;;;;;19.20;13.85;;;;;;;;;;4991538;28;20202;-65
2023/12/14 04:33:16;;;;;;;19.73;13.95;;;;;;;;;;4990753;28;20206;-65
2023/12/14 04:35:44;;;;;;;16.98;14.02;;;;;;;;;;4991580;28;20211;-65
2023/12/14 04:38:12;;;;;;;17.08;13.80;;;;;;;;;;4997599;28;20678;-65
2023/12/14 04:40:41;;;;;;;17.77;14.23;;;;;;;;;;5011058;28;20233;-65
2023/12/14 04:43:10;;;;;;;17.95;13.95;;;;;;;;;;5007351;28;20202;-65
2023/12/14 04:45:38;;;;;;;16.77;14.45;;;;;;;;;;4998483;28;20202;-65
2023/12/14 04:48:07;;;;;;;19.42;14.32;;;;;;;;;;5005144;28;20213;-65
2023/12/14 04:50:35;;;;;;;21.45;14.93;;;;;;;;;;4999710;28;20205;-65
2023/12/14 04:53:04;;;;;;;19.17;17.02;;;;;;;;;;5010541;28;20563;-65
2023/12/14 04:55:32;;;;;;;21.92;15.57;;;;;;;;;;5006005;28;20220;-65
2023/12/14 04:58:01;;;;;;;16.33;14.45;;;;;;;;;;5004790;28;20720;-65
2023/12/14 05:00:30;;;;;;;21.08;14.27;;;;;;;;;;4990405;28;20219;-65
2023/12/14 05:02:58;;;;;;;25.75;15.48;;;;;;;;;;5003795;28;20198;-65
2023/12/14 05:05:27;;;;;;;19.00;14.73;;;;;;;;;;5006360;28;20195;-64
2023/12/14 05:07:55;;;;;;;18.48;14.73;;;;;;;;;;4990631;28;20677;-65
2023/12/14 05:10:23;;;;;;;18.77;14.85;;;;;;;;;;5000903;28;20198;-65
2023/12/14 05:12:52;;;;;;;24.30;17.75;;;;;;;;;;5003817;28;20203;-65
2023/12/14 05:15:21;;;;;;;29.67;20.05;;;;;;;;;;4992694;28;20206;-65
2023/12/14 05:17:50;;;;;;;23.45;17.65;;;;;;;;;;5002838;28;20202;-65
2023/12/14 05:20:20;;;;;;;27.60;17.55;;;;;;;;;;4995858;28;20220;-66
2023/12/14 05:22:48;;;;;;;23.83;17.13;;;;;;;;;;5008979;28;20214;-65
2023/12/14 05:25:17;;;;;;;22.35;17.23;;;;;;;;;;5006156;28;20208;-64
2023/12/14 05:27:45;;;;;;;23.58;17.45;;;;;;;;;;4990629;28;20255;-65
2023/12/14 05:30:13;;;;;;;25.90;19.23;;;;;;;;;;4991418;28;20255;-65
2023/12/14 05:32:42;;;;;;;24.60;18.60;;;;;;;;;;5006182;28;20657;-65
2023/12/14 05:35:12;;;;;;;26.98;18.10;;;;;;;;;;5008976;28;20577;-64
2023/12/14 05:37:41;;;;;;;31.63;17.65;;;;;;;;;;5003978;28;20244;-64
2023/12/14 05:40:11;;;;;;;23.40;18.50;;;;;;;;;;4991957;28;20214;-65
2023/12/14 05:42:39;;;;;;;26.42;17.05;;;;;;;;;;5003430;28;20202;-64
2023/12/14 05:45:08;;;;;;;22.83;18.17;;;;;;;;;;4984320;28;20219;-65
2023/12/14 05:47:38;;;;;;;21.98;17.42;;;;;;;;;;4991790;28;20244;-65
2023/12/14 05:50:09;;;;;;;24.80;17.67;;;;;;;;;;5006981;28;20673;-65
2023/12/14 05:52:40;;;;;;;26.38;17.80;;;;;;;;;;4995752;28;20194;-65
2023/12/14 05:55:10;;;;;;;26.00;17.60;;;;;;;;;;4993236;28;20627;-65
2023/12/14 05:57:38;;;;;;;24.25;18.85;;;;;;;;;;4998193;28;20661;-65
2023/12/14 06:00:08;;;;;;;23.00;18.23;;;;;;;;;;4995277;28;20232;-65
2023/12/14 06:02:37;;;;;;;22.52;17.98;;;;;;;;;;5009019;28;20206;-65
2023/12/14 06:05:08;;;;;;;29.63;23.25;;;;;;;;;;5009178;28;20202;-65
2023/12/14 06:07:37;;;;;;;27.20;19.85;;;;;;;;;;4997532;28;20206;-65
2023/12/14 06:10:07;;;;;;;23.27;16.80;;;;;;;;;;4991412;28;20716;-65
2023/12/14 06:12:36;;;;;;;24.55;17.40;;;;;;;;;;4996562;28;20198;-65
2023/12/14 06:15:04;;;;;;;25.40;18.05;;;;;;;;;;4993217;28;20713;-65
2023/12/14 06:17:33;;;;;;;25.67;18.42;;;;;;;;;;5002971;28;20212;-65
2023/12/14 06:20:03;;;;;;;28.60;20.60;;;;;;;;;;4998509;28;20218;-65
2023/12/14 06:22:32;;;;;;;20.80;16.05;;;;;;;;;;5001617;28;20603;-66
2023/12/14 06:25:00;;;;;;;25.75;16.15;;;;;;;;;;4985788;28;20209;-66
2023/12/14 06:27:30;;;;;;;20.92;16.05;;;;;;;;;;4983830;28;20577;-65
2023/12/14 06:29:58;;;;;;;22.65;16.40;;;;;;;;;;4979477;28;20195;-65
2023/12/14 06:32:27;;;;;;;20.50;16.08;;;;;;;;;;4995675;28;20217;-65
2023/12/14 06:34:56;;;;;;;22.48;16.05;;;;;;;;;;4996213;28;20206;-65
2023/12/14 06:37:24;;;;;;;19.08;15.23;;;;;;;;;;4990011;28;20255;-65
2023/12/14 06:39:52;;;;;;;26.33;16.00;;;;;;;;;;4989328;28;20233;-65
2023/12/14 06:42:21;;;;;;;20.42;16.50;;;;;;;;;;4990834;28;20199;-65
2023/12/14 06:44:50;;;;;;;21.90;15.93;;;;;;;;;;4994142;28;20279;-65
2023/12/14 06:47:18;;;;;;;23.17;16.60;;;;;;;;;;4995003;28;20202;-65
2023/12/14 06:49:46;;;;;;;21.02;15.02;;;;;;;;;;5008975;28;20235;-65
2023/12/14 06:52:14;;;;;;;22.45;15.63;;;;;;;;;;4980430;28;20199;-65
2023/12/14 06:54:42;;;;;;;23.38;15.15;;;;;;;;;;4987862;28;20245;-66
2023/12/14 06:57:10;;;;;;;27.55;16.40;;;;;;;;;;4987882;28;20194;-65
2023/12/14 06:59:38;;;;;;;25.00;19.20;;;;;;;;;;4994250;28;20852;-67
2023/12/14 07:02:08;;;;;;;21.98;16.13;;;;;;;;;;4996707;28;20266;-67
2023/12/14 07:04:36;;;;;;;19.83;15.95;;;;;;;;;;4996717;28;20209;-63
2023/12/14 07:07:05;;;;;;;23.35;17.75;;;;;;;;;;4986561;28;20590;-66
2023/12/14 07:09:33;;;;;;;26.85;17.75;;;;;;;;;;4969427;28;20566;-65
2023/12/14 07:12:02;;;;;;;24.00;17.95;;;;;;;;;;4994948;28;20214;-65
2023/12/14 07:14:30;;;;;;;28.33;17.30;;;;;;;;;;4991199;28;20202;-64
2023/12/14 07:16:58;;;;;;;28.00;16.70;;;;;;;;;;4992235;28;20194;-63
2023/12/14 07:19:27;;;;;;;25.47;17.20;;;;;;;;;;5005629;28;20210;-66
2023/12/14 07:21:55;;;;;;;26.08;17.38;;;;;;;;;;5005399;28;20198;-64
2023/12/14 07:24:23;;;;;;;36.92;18.00;;;;;;;;;;5007586;28;20206;-64
2023/12/14 07:26:51;;;;;;;24.55;17.25;;;;;;;;;;5005817;28;20206;-64
2023/12/14 07:29:19;;;;;;;23.83;16.90;;;;;;;;;;4999737;28;20206;-66
2023/12/14 07:31:47;;;;;;;33.05;17.52;;;;;;;;;;4991228;28;20642;-66
2023/12/14 07:34:15;;;;;;;25.92;18.02;;;;;;;;;;4986822;28;20673;-66
2023/12/14 07:36:45;;;;;;;27.77;18.63;;;;;;;;;;4980956;28;20671;-68
2023/12/14 07:39:13;;;;;;;23.13;16.00;;;;;;;;;;4989729;28;20199;-67
2023/12/14 07:41:46;;;;;;;23.30;15.63;;;;;;;;;;4997508;28;20242;-66
2023/12/14 07:44:14;;;;;;;24.58;17.05;;;;;;;;;;5001641;28;20274;-66
2023/12/14 07:46:43;;;;;;;24.60;16.17;;;;;;;;;;5000964;28;20202;-67
2023/12/14 07:49:11;;;;;;;23.20;16.33;;;;;;;;;;4994314;28;20215;-67
2023/12/14 07:51:39;;;;;;;28.40;18.02;;;;;;;;;;5002787;28;20194;-66
2023/12/14 07:54:09;;;;;;;32.75;18.70;;;;;;;;;;5009104;28;20246;-66
2023/12/14 07:56:38;;;;;;;29.20;19.45;;;;;;;;;;4988603;28;20191;-66
2023/12/14 07:59:06;;;;;;;26.90;17.15;;;;;;;;;;5003334;28;20250;-66
2023/12/14 08:01:37;;;;;;;25.83;17.02;;;;;;;;;;4998092;28;20673;-65
2023/12/14 08:04:05;;;;;;;28.05;18.00;;;;;;;;;;5002284;28;20267;-65
2023/12/14 08:06:33;;;;;;;26.92;16.17;;;;;;;;;;4995783;28;20221;-67
2023/12/14 08:09:01;;;;;;;22.33;16.80;;;;;;;;;;4969610;28;20268;-67
2023/12/14 08:11:31;;;;;;;23.65;18.15;;;;;;;;;;4979400;28;20197;-66
2023/12/14 08:13:59;;;;;;;24.13;16.88;;;;;;;;;;4990725;28;20718;-67
2023/12/14 08:16:28;;;;;;;25.48;18.10;;;;;;;;;;4995082;28;20203;-66
2023/12/14 08:18:56;;;;;;;25.45;17.50;;;;;;;;;;4994375;28;20221;-66
2023/12/14 08:21:24;;;;;;;21.73;16.23;;;;;;;;;;4995769;28;20222;-66
2023/12/14 08:23:52;;;;;;;22.20;15.73;;;;;;;;;;5002759;28;20203;-66
2023/12/14 08:26:20;;;;;;;24.25;16.70;;;;;;;;;;4992546;28;20224;-65
2023/12/14 08:28:50;;;;;;;25.67;18.90;;;;;;;;;;4995450;28;20211;-66
2023/12/14 08:31:18;;;;;;;26.35;20.73;;;;;;;;;;4995963;28;20202;-66
2023/12/14 08:33:46;;;;;;;23.88;18.50;;;;;;;;;;4994155;28;20203;-66
2023/12/14 08:36:17;;;;;;;23.15;14.82;;;;;;;;;;4990152;28;20661;-66
2023/12/14 08:38:45;;;;;;;20.25;14.27;;;;;;;;;;4990193;28;20206;-65
2023/12/14 08:41:14;;;;;;;19.25;14.98;;;;;;;;;;4990466;28;20271;-66
2023/12/14 08:43:42;;;;;;;19.80;13.55;;;;;;;;;;4996591;28;20226;-67
2023/12/14 08:46:12;;;;;;;19.63;13.57;;;;;;;;;;4997723;28;20206;-66
2023/12/14 08:48:40;;;;;;;24.10;14.02;;;;;;;;;;5000809;28;20201;-66
2023/12/14 08:51:09;;;;;;;14.80;13.00;;;;;;;;;;4995731;28;20914;-66
2023/12/14 08:53:37;;;;;;;28.02;14.35;;;;;;;;;;4991935;28;20203;-68
2023/12/14 08:56:06;;;;;;;22.75;14.52;;;;;;;;;;4990535;28;20258;-68
2023/12/14 08:58:34;;;;;;;16.27;12.50;;;;;;;;;;4985126;28;20207;-68
2023/12/14 09:01:02;;;;;;;19.63;12.73;;;;;;;;;;4993954;28;20597;-67
2023/12/14 09:03:32;;;;;;;15.70;12.75;;;;;;;;;;5002590;28;20331;-67
2023/12/14 09:06:02;;;;;;;18.33;12.80;;;;;;;;;;5007065;28;20224;-66
2023/12/14 09:08:30;;;;;;;17.85;12.82;;;;;;;;;;4987711;28;20202;-66
2023/12/14 09:11:00;;;;;;;15.85;11.60;;;;;;;;;;5005067;28;20209;-67
2023/12/14 09:13:28;;;;;;;15.00;11.88;;;;;;;;;;4994214;28;20194;-68
2023/12/14 09:15:57;;;;;;;16.92;11.07;;;;;;;;;;5003815;28;20603;-67
2023/12/14 09:18:25;;;;;;;15.50;11.95;;;;;;;;;;4999816;28;20216;-67
2023/12/14 09:20:55;;;;;;;13.82;11.40;;;;;;;;;;5007478;28;20232;-66
2023/12/14 09:23:23;;;;;;;13.18;10.93;;;;;;;;;;4970978;28;20215;-66
2023/12/14 09:25:51;;;;;;;12.85;11.45;;;;;;;;;;5001265;28;20206;-67
2023/12/14 09:28:19;;;;;;;15.45;11.65;;;;;;;;;;5003312;28;20560;-66
2023/12/14 09:30:47;;;;;;;13.13;11.45;;;;;;;;;;4991590;28;20201;-67
2023/12/14 09:33:16;;;;;;;14.15;9.57;;;;;;;;;;4995858;28;20952;-66
2023/12/14 09:35:44;;;;;;;11.55;10.43;;;;;;;;;;4998835;28;20206;-66
2023/12/14 09:38:16;;;;;;;13.10;10.45;;;;;;;;;;4999140;28;20207;-66
2023/12/14 09:40:45;;;;;;;16.80;11.40;;;;;;;;;;4992037;28;20300;-67
2023/12/14 09:43:14;;;;;;;12.98;10.60;;;;;;;;;;5001789;28;20202;-66
2023/12/14 09:45:44;;;;;;;14.43;9.55;;;;;;;;;;5002367;28;20195;-67
2023/12/14 09:48:13;;;;;;;13.15;9.43;;;;;;;;;;4990401;28;20200;-67
2023/12/14 09:50:42;;;;;;;15.52;9.68;;;;;;;;;;4995510;28;20203;-67
2023/12/14 09:53:12;;;;;;;13.40;9.98;;;;;;;;;;4993897;28;20199;-67
2023/12/14 09:55:41;;;;;;;11.93;10.43;;;;;;;;;;5000891;28;20270;-67
2023/12/14 09:58:10;;;;;;;11.00;9.50;;;;;;;;;;4993333;28;20207;-66
2023/12/14 10:00:39;;;;;;;14.90;9.60;;;;;;;;;;4990751;28;20210;-67
2023/12/14 10:03:22;;;;;;;17.52;8.85;;;;;;;;;;5001362;28;20259;-67
2023/12/14 10:05:51;;;;;;;12.68;10.15;;;;;;;;;;4984683;28;20214;-67
2023/12/14 10:08:20;;;;;;;9.05;8.15;;;;;;;;;;4973373;28;20213;-67
2023/12/14 10:10:51;;;;;;;16.10;10.10;;;;;;;;;;4996217;28;20205;-67
2023/12/14 10:13:19;;;;;;;13.80;10.48;;;;;;;;;;5006116;28;20743;-67
2023/12/14 10:15:48;;;;;;;12.15;10.73;;;;;;;;;;4999652;28;20224;-67
2023/12/14 10:18:23;;;;;;;11.02;9.48;;;;;;;;;;5008290;28;20206;-67
2023/12/14 10:20:52;;;;;;;10.40;8.95;;;;;;;;;;5005833;28;20216;-67
2023/12/14 10:23:20;;;;;;;15.93;9.48;;;;;;;;;;4991709;28;20653;-67
2023/12/14 10:25:50;;;;;;;17.92;10.63;;;;;;;;;;4984605;28;20206;-66
2023/12/14 10:28:18;;;;;;;14.48;9.55;;;;;;;;;;4985146;28;20255;-66
2023/12/14 10:30:46;;;;;;;9.82;8.65;;;;;;;;;;4999403;28;20206;-66
2023/12/14 10:33:16;;;;;;;13.40;9.32;;;;;;;;;;5008173;28;20202;-66
2023/12/14 10:35:46;;;;;;;18.98;12.02;;;;;;;;;;4991631;28;20205;-66
2023/12/14 10:38:17;;;;;;;10.45;9.25;;;;;;;;;;4984608;28;20616;-65
2023/12/14 10:40:46;;;;;;;10.32;9.20;;;;;;;;;;4967263;28;20239;-66
2023/12/14 10:43:17;;;;;;;13.93;12.43;;;;;;;;;;4969427;28;20223;-66
2023/12/14 10:45:47;;;;;;;14.10;11.00;;;;;;;;;;5006370;28;20191;-66
2023/12/14 10:48:20;;;;;;;13.25;10.95;;;;;;;;;;5004272;28;20192;-64
2023/12/14 10:50:48;;;;;;;14.82;9.88;;;;;;;;;;4982456;28;20194;-64
2023/12/14 10:53:16;;;;;;;12.07;9.57;;;;;;;;;;5001438;28;20202;-65
2023/12/14 10:55:46;;;;;;;12.43;10.13;;;;;;;;;;4999727;28;20682;-64
2023/12/14 10:58:14;;;;;;;16.45;11.25;;;;;;;;;;4995551;28;20208;-65
2023/12/14 11:00:44;;;;;;;13.80;10.00;;;;;;;;;;4999465;28;20699;-65
2023/12/14 11:03:15;;;;;;;10.60;8.98;;;;;;;;;;4988797;28;20700;-64
2023/12/14 11:05:43;;;;;;;10.85;8.95;;;;;;;;;;4998780;28;20566;-64
2023/12/14 11:08:12;;;;;;;15.35;10.18;;;;;;;;;;4985600;28;20211;-64
2023/12/14 11:10:41;;;;;;;23.95;11.38;;;;;;;;;;4996513;28;20205;-64
2023/12/14 11:13:12;;;;;;;13.25;10.65;;;;;;;;;;4997970;28;20198;-64
2023/12/14 11:15:40;;;;;;;12.30;10.45;;;;;;;;;;4988260;28;20219;-65
2023/12/14 11:18:24;;;;;;;14.45;10.50;;;;;;;;;;5002434;28;20211;-65
2023/12/14 11:20:53;;;;;;;13.50;9.50;;;;;;;;;;4987990;28;20203;-64
2023/12/14 11:23:29;;;;;;;14.80;9.93;;;;;;;;;;4989249;28;20595;-64
2023/12/14 11:25:59;;;;;;;10.90;9.50;;;;;;;;;;4989417;28;20706;-64
2023/12/14 11:28:27;;;;;;;11.40;9.45;;;;;;;;;;4989497;28;20207;-64
2023/12/14 11:30:59;;;;;;;10.85;8.75;;;;;;;;;;4993696;28;20198;-64
2023/12/14 11:33:29;;;;;;;10.30;8.23;;;;;;;;;;4992520;28;20195;-64
2023/12/14 11:35:57;;;;;;;9.27;7.55;;;;;;;;;;4991439;28;20674;-64
2023/12/14 11:38:26;;;;;;;6.70;5.68;;;;;;;;;;4992305;28;20271;-65
2023/12/14 11:40:54;;;;;;;8.00;6.38;;;;;;;;;;4992661;28;20239;-64
2023/12/14 11:43:24;;;;;;;9.43;6.65;;;;;;;;;;5003675;28;20214;-64
2023/12/14 11:45:53;;;;;;;8.95;7.40;;;;;;;;;;5010623;28;20574;-64
2023/12/14 11:48:21;;;;;;;13.20;7.40;;;;;;;;;;4994369;28;20815;-65
2023/12/14 11:50:51;;;;;;;7.50;6.90;;;;;;;;;;5004479;28;20221;-65
2023/12/14 11:53:21;;;;;;;7.70;6.53;;;;;;;;;;4992235;28;20295;-64
2023/12/14 11:55:52;;;;;;;6.90;5.93;;;;;;;;;;4993443;28;20187;-65
2023/12/14 11:58:21;;;;;;;8.68;5.55;;;;;;;;;;4990910;28;20202;-65
2023/12/14 12:00:49;;;;;;;6.13;5.32;;;;;;;;;;4995298;28;20206;-65
2023/12/14 12:03:19;;;;;;;7.70;4.03;;;;;;;;;;4988342;28;20224;-66
2023/12/14 12:05:48;;;;;;;4.25;3.90;;;;;;;;;;4987013;28;20202;-66
2023/12/14 12:08:19;;;;;;;5.38;4.80;;;;;;;;;;4977846;28;20260;-64
2023/12/14 12:10:48;;;;;;;5.03;4.32;;;;;;;;;;4982090;28;20196;-65
2023/12/14 12:13:17;;;;;;;5.28;4.78;;;;;;;;;;4993611;28;20202;-64
2023/12/14 12:15:46;;;;;;;5.70;5.20;;;;;;;;;;4989419;28;20600;-64
2023/12/14 12:18:16;;;;;;;4.57;4.18;;;;;;;;;;4991141;28;20198;-64
2023/12/14 12:20:44;;;;;;;5.90;5.30;;;;;;;;;;4989808;28;20205;-65
2023/12/14 12:23:13;;;;;;;5.50;5.07;;;;;;;;;;4991880;28;20222;-65
2023/12/14 12:25:42;;;;;;;7.60;5.68;;;;;;;;;;4988306;28;20207;-65
2023/12/14 12:28:11;;;;;;;8.68;6.80;;;;;;;;;;4990363;28;20211;-65
2023/12/14 12:30:39;;;;;;;7.10;6.40;;;;;;;;;;5001223;28;20202;-66
2023/12/14 12:33:07;;;;;;;7.50;6.65;;;;;;;;;;4993161;28;20217;-65
2023/12/14 12:35:36;;;;;;;7.20;5.90;;;;;;;;;;4992122;28;20214;-65
2023/12/14 12:38:04;;;;;;;7.82;6.85;;;;;;;;;;4982160;28;20199;-65
2023/12/14 12:40:33;;;;;;;9.18;8.27;;;;;;;;;;4990230;28;20243;-64
2023/12/14 12:43:03;;;;;;;9.68;7.35;;;;;;;;;;4992404;28;20275;-65
2023/12/14 12:45:32;;;;;;;9.98;6.47;;;;;;;;;;5009143;28;20226;-65
2023/12/14 12:48:00;;;;;;;6.45;5.85;;;;;;;;;;5006680;28;20195;-65
2023/12/14 12:50:28;;;;;;;4.65;4.28;;;;;;;;;;5008474;28;20202;-63
2023/12/14 12:52:56;;;;;;;5.88;5.38;;;;;;;;;;4999833;28;20215;-63
2023/12/14 12:55:25;;;;;;;5.55;4.47;;;;;;;;;;4984840;28;20200;-64
2023/12/14 12:57:53;;;;;;;5.37;4.87;;;;;;;;;;4977332;28;20202;-64
2023/12/14 13:00:22;;;;;;;6.00;5.40;;;;;;;;;;4982463;28;20605;-63
2023/12/14 13:02:51;;;;;;;8.48;5.07;;;;;;;;;;4982634;28;20248;-64
2023/12/14 13:05:19;;;;;;;8.93;6.50;;;;;;;;;;4982826;28;20662;-64
2023/12/14 13:07:48;;;;;;;7.65;6.00;;;;;;;;;;4983139;28;20651;-65
2023/12/14 13:10:18;;;;;;;6.05;4.80;;;;;;;;;;4993669;28;20208;-64
2023/12/14 13:12:47;;;;;;;5.85;5.35;;;;;;;;;;5001017;28;20190;-63
2023/12/14 13:15:15;;;;;;;9.35;5.30;;;;;;;;;;4984499;28;20209;-63
2023/12/14 13:17:45;;;;;;;5.95;5.38;;;;;;;;;;5004701;28;20261;-63
2023/12/14 13:20:13;;;;;;;11.30;7.70;;;;;;;;;;5002724;28;20258;-63
2023/12/14 13:22:41;;;;;;;7.60;4.80;;;;;;;;;;5013117;28;20346;-66
2023/12/14 13:25:09;;;;;;;12.85;8.95;;;;;;;;;;5003529;28;20254;-62
2023/12/14 13:27:38;;;;;;;9.52;6.50;;;;;;;;;;5011687;28;20289;-63
2023/12/14 13:30:06;;;;;;;6.82;5.07;;;;;;;;;;5006988;28;20335;-62
2023/12/14 13:32:35;;;;;;;5.80;5.30;;;;;;;;;;5011775;28;20283;-64
2023/12/14 13:35:05;;;;;;;5.25;4.75;;;;;;;;;;5006417;28;20284;-63
2023/12/14 13:37:38;;;;;;;5.33;4.77;;;;;;;;;;5020533;28;20269;-63
2023/12/14 13:40:09;;;;;;;3.90;3.50;;;;;;;;;;5014593;28;20670;-63
2023/12/14 13:42:37;;;;;;;4.68;4.00;;;;;;;;;;5000923;28;20674;-63
2023/12/14 13:45:06;;;;;;;5.00;4.20;;;;;;;;;;5006663;28;20666;-62
2023/12/14 13:47:34;;;;;;;3.77;3.47;;;;;;;;;;5002011;28;20634;-63
2023/12/14 13:50:04;;;;;;;4.28;3.88;;;;;;;;;;5006297;28;20703;-63
2023/12/14 13:52:33;;;;;;;4.17;3.70;;;;;;;;;;5001288;28;20277;-63
2023/12/14 13:55:02;;;;;;;6.23;5.43;;;;;;;;;;5010201;28;20717;-63
2023/12/14 13:57:32;;;;;;;4.95;4.43;;;;;;;;;;5013164;28;20688;-63
2023/12/14 14:00:03;;;;;;;3.80;3.50;;;;;;;;;;5012579;28;20274;-62
2023/12/14 14:02:33;;;;;;;3.95;3.42;;;;;;;;;;5002516;28;20615;-63
2023/12/14 14:05:01;;;;;;;3.47;3.10;;;;;;;;;;5012551;28;20292;-62
2023/12/14 14:07:31;;;;;;;4.90;4.50;;;;;;;;;;5001452;28;20713;-63
2023/12/14 14:10:00;;;;;;;7.72;5.15;;;;;;;;;;5002047;28;20725;-63
2023/12/14 14:12:29;;;;;;;11.93;9.88;;;;;;;;;;5016448;28;20282;-63
2023/12/14 14:14:57;;;;;;;5.68;5.20;;;;;;;;;;5011116;28;20288;-62
2023/12/14 14:17:25;;;;;;;5.80;4.43;;;;;;;;;;5007322;28;20258;-63
2023/12/14 14:19:53;;;;;;;4.38;4.07;;;;;;;;;;5009716;28;20266;-64
2023/12/14 14:22:21;;;;;;;3.88;3.55;;;;;;;;;;5006812;28;20273;-63
2023/12/14 14:24:50;;;;;;;4.03;3.60;;;;;;;;;;5018234;28;20269;-63
2023/12/14 14:27:19;;;;;;;6.20;4.55;;;;;;;;;;5005875;28;20285;-63
2023/12/14 14:29:47;;;;;;;4.35;3.58;;;;;;;;;;5001861;28;20265;-63
2023/12/14 14:32:16;;;;;;;5.40;3.75;;;;;;;;;;5010533;28;20273;-63